sensor_id;sensor_type;location;lat;lon;timestamp;pressure;altitude;pressure_sealevel;temperature;humidity
78144;BME280;67394;52.522;13.622;2023-05-24T00:01:12;101149.22;;;10.24;71.71
78144;BME280;67394;52.522;13.622;2023-05-24T00:03:39;101152.66;;;10.24;72.17
78144;BME280;67394;52.522;13.622;2023-05-24T00:06:06;101153.50;;;10.25;71.56
78144;BME280;67394;52.522;13.622;2023-05-24T00:08:33;101151.72;;;10.18;71.96
78144;BME280;67394;52.522;13.622;2023-05-24T00:11:00;101165.31;;;10.12;71.29
78144;BME280;67394;52.522;13.622;2023-05-24T00:13:26;101160.22;;;10.15;71.62
78144;BME280;67394;52.522;13.622;2023-05-24T00:15:53;101156.00;;;10.19;71.78
78144;BME280;67394;52.522;13.622;2023-05-24T00:18:19;101159.34;;;10.13;71.42
78144;BME280;67394;52.522;13.622;2023-05-24T00:20:46;101162.75;;;10.12;71.19
78144;BME280;67394;52.522;13.622;2023-05-24T00:23:13;101162.69;;;10.06;72.29
78144;BME280;67394;52.522;13.622;2023-05-24T00:25:40;101157.59;;;10.09;70.92
78144;BME280;67394;52.522;13.622;2023-05-24T00:28:06;101160.94;;;10.02;71.28
78144;BME280;67394;52.522;13.622;2023-05-24T00:30:33;101161.81;;;10.03;71.66
78144;BME280;67394;52.522;13.622;2023-05-24T00:32:59;101154.16;;;10.06;70.49
78144;BME280;67394;52.522;13.622;2023-05-24T00:35:26;101160.09;;;10.03;70.13
78144;BME280;67394;52.522;13.622;2023-05-24T00:37:52;101164.25;;;9.92;71.54
78144;BME280;67394;52.522;13.622;2023-05-24T00:40:19;101157.41;;;9.91;71.16
78144;BME280;67394;52.522;13.622;2023-05-24T00:42:46;101158.28;;;9.93;71.59
78144;BME280;67394;52.522;13.622;2023-05-24T00:45:12;101159.97;;;9.91;72.20
78144;BME280;67394;52.522;13.622;2023-05-24T00:47:39;101156.50;;;9.84;71.99
78144;BME280;67394;52.522;13.622;2023-05-24T00:50:07;101156.50;;;9.84;71.85
78144;BME280;67394;52.522;13.622;2023-05-24T00:52:35;101161.63;;;9.84;71.15
78144;BME280;67394;52.522;13.622;2023-05-24T00:55:02;101160.69;;;9.79;71.52
78144;BME280;67394;52.522;13.622;2023-05-24T00:57:31;101164.06;;;9.77;71.41
78144;BME280;67394;52.522;13.622;2023-05-24T00:59:58;101161.50;;;9.74;71.79
78144;BME280;67394;52.522;13.622;2023-05-24T01:02:25;101157.16;;;9.68;72.80
78144;BME280;67394;52.522;13.622;2023-05-24T01:04:52;101165.75;;;9.72;71.72
78144;BME280;67394;52.522;13.622;2023-05-24T01:07:44;101160.50;;;9.61;71.83
78144;BME280;67394;52.522;13.622;2023-05-24T01:11:05;101159.56;;;9.56;72.44
78144;BME280;67394;52.522;13.622;2023-05-24T01:13:18;101162.94;;;9.52;71.88
78144;BME280;67394;52.522;13.622;2023-05-24T01:15:59;101170.50;;;9.43;72.26
78144;BME280;67394;52.522;13.622;2023-05-24T01:18:54;101175.53;;;9.35;72.94
78144;BME280;67394;52.522;13.622;2023-05-24T01:24:29;101173.72;;;9.28;72.84
78144;BME280;67394;52.522;13.622;2023-05-24T01:27:07;101170.28;;;9.26;74.59
78144;BME280;67394;52.522;13.622;2023-05-24T01:29:34;101173.66;;;9.24;73.31
78144;BME280;67394;52.522;13.622;2023-05-24T01:32:01;101171.88;;;9.18;73.60
78144;BME280;67394;52.522;13.622;2023-05-24T01:34:28;101171.84;;;9.15;73.12
78144;BME280;67394;52.522;13.622;2023-05-24T01:36:55;101164.16;;;9.15;73.19
78144;BME280;67394;52.522;13.622;2023-05-24T01:39:26;101174.34;;;9.12;73.27
78144;BME280;67394;52.522;13.622;2023-05-24T01:44:43;101176.75;;;9.00;74.26
78144;BME280;67394;52.522;13.622;2023-05-24T01:49:53;101186.09;;;8.98;74.30
78144;BME280;67394;52.522;13.622;2023-05-24T01:52:21;101189.50;;;8.98;73.62
78144;BME280;67394;52.522;13.622;2023-05-24T01:54:51;101183.56;;;9.01;74.13
78144;BME280;67394;52.522;13.622;2023-05-24T01:57:19;101186.13;;;9.01;73.33
78144;BME280;67394;52.522;13.622;2023-05-24T01:59:46;101195.50;;;9.02;74.15
78144;BME280;67394;52.522;13.622;2023-05-24T02:02:13;101192.13;;;9.03;73.37
78144;BME280;67394;52.522;13.622;2023-05-24T02:04:40;101187.03;;;9.04;73.81
78144;BME280;67394;52.522;13.622;2023-05-24T02:07:06;101188.72;;;9.04;73.94
78144;BME280;67394;52.522;13.622;2023-05-24T02:09:33;101185.41;;;9.09;73.79
78144;BME280;67394;52.522;13.622;2023-05-24T02:12:00;101186.28;;;9.11;73.89
78144;BME280;67394;52.522;13.622;2023-05-24T02:14:26;101186.44;;;9.21;73.67
78144;BME280;67394;52.522;13.622;2023-05-24T02:16:53;101187.28;;;9.21;72.79
78144;BME280;67394;52.522;13.622;2023-05-24T02:19:19;101190.00;;;9.35;71.79
78144;BME280;67394;52.522;13.622;2023-05-24T02:21:46;101183.25;;;9.38;73.61
78144;BME280;67394;52.522;13.622;2023-05-24T02:24:12;101188.41;;;9.43;72.15
78144;BME280;67394;52.522;13.622;2023-05-24T02:26:39;101181.56;;;9.40;72.58
78144;BME280;67394;52.522;13.622;2023-05-24T02:29:06;101179.06;;;9.46;71.96
78144;BME280;67394;52.522;13.622;2023-05-24T02:31:33;101173.13;;;9.47;72.05
78144;BME280;67394;52.522;13.622;2023-05-24T02:34:00;101172.22;;;9.45;72.31
78144;BME280;67394;52.522;13.622;2023-05-24T02:36:27;101177.44;;;9.51;72.50
78144;BME280;67394;52.522;13.622;2023-05-24T02:38:54;101171.47;;;9.54;72.40
78144;BME280;67394;52.522;13.622;2023-05-24T02:41:20;101176.59;;;9.52;72.51
78144;BME280;67394;52.522;13.622;2023-05-24T02:43:47;101178.31;;;9.52;71.74
78144;BME280;67394;52.522;13.622;2023-05-24T02:46:15;101173.16;;;9.50;72.18
78144;BME280;67394;52.522;13.622;2023-05-24T02:48:42;101168.94;;;9.52;72.66
78144;BME280;67394;52.522;13.622;2023-05-24T02:51:08;101167.28;;;9.58;71.85
78144;BME280;67394;52.522;13.622;2023-05-24T02:53:35;101166.38;;;9.52;72.50
78144;BME280;67394;52.522;13.622;2023-05-24T02:56:02;101174.06;;;9.55;72.62
78144;BME280;67394;52.522;13.622;2023-05-24T02:58:28;101181.75;;;9.55;71.79
78144;BME280;67394;52.522;13.622;2023-05-24T03:00:55;101180.13;;;9.62;71.91
78144;BME280;67394;52.522;13.622;2023-05-24T03:03:21;101169.94;;;9.67;71.08
78144;BME280;67394;52.522;13.622;2023-05-24T03:05:48;101176.69;;;9.60;71.32
78144;BME280;67394;52.522;13.622;2023-05-24T03:08:15;101178.38;;;9.60;71.18
78144;BME280;67394;52.522;13.622;2023-05-24T03:10:41;101175.00;;;9.62;71.90
78144;BME280;67394;52.522;13.622;2023-05-24T03:13:08;101171.59;;;9.62;71.76
78144;BME280;67394;52.522;13.622;2023-05-24T03:15:35;101181.00;;;9.66;71.25
78144;BME280;67394;52.522;13.622;2023-05-24T03:18:02;101183.53;;;9.64;71.85
78144;BME280;67394;52.522;13.622;2023-05-24T03:20:29;101181.13;;;9.73;71.81
78144;BME280;67394;52.522;13.622;2023-05-24T03:22:55;101179.34;;;9.68;72.05
78144;BME280;67394;52.522;13.622;2023-05-24T03:25:22;101178.47;;;9.67;72.36
78144;BME280;67394;52.522;13.622;2023-05-24T03:27:49;101188.78;;;9.75;71.76
78144;BME280;67394;52.522;13.622;2023-05-24T03:30:15;101182.75;;;9.68;72.73
78144;BME280;67394;52.522;13.622;2023-05-24T03:32:42;101187.84;;;9.67;72.95
78144;BME280;67394;52.522;13.622;2023-05-24T03:35:08;101187.06;;;9.71;72.82
78144;BME280;67394;52.522;13.622;2023-05-24T03:37:35;101180.16;;;9.67;72.31
78144;BME280;67394;52.522;13.622;2023-05-24T03:40:02;101190.44;;;9.68;72.89
78144;BME280;67394;52.522;13.622;2023-05-24T03:42:29;101184.41;;;9.65;72.53
78144;BME280;67394;52.522;13.622;2023-05-24T03:44:55;101193.81;;;9.67;73.94
78144;BME280;67394;52.522;13.622;2023-05-24T03:47:22;101198.13;;;9.70;73.05
78144;BME280;67394;52.522;13.622;2023-05-24T03:49:49;101196.47;;;9.75;74.01
78144;BME280;67394;52.522;13.622;2023-05-24T03:52:16;101203.34;;;9.79;74.85
78144;BME280;67394;52.522;13.622;2023-05-24T03:54:42;101202.56;;;9.86;73.13
78144;BME280;67394;52.522;13.622;2023-05-24T03:57:09;101213.59;;;9.79;74.81
78144;BME280;67394;52.522;13.622;2023-05-24T03:59:35;101211.97;;;9.87;73.18
78144;BME280;67394;52.522;13.622;2023-05-24T04:02:06;101217.09;;;9.87;74.16
78144;BME280;67394;52.522;13.622;2023-05-24T04:04:33;101215.47;;;9.92;73.74
78144;BME280;67394;52.522;13.622;2023-05-24T04:06:59;101209.41;;;9.85;74.07
78144;BME280;67394;52.522;13.622;2023-05-24T04:09:26;101215.38;;;9.84;73.18
78144;BME280;67394;52.522;13.622;2023-05-24T04:11:53;101203.44;;;9.85;74.05
78144;BME280;67394;52.522;13.622;2023-05-24T04:14:19;101214.56;;;9.90;73.94
78144;BME280;67394;52.522;13.622;2023-05-24T04:16:46;101216.31;;;9.91;74.15
78144;BME280;67394;52.522;13.622;2023-05-24T04:19:12;101218.03;;;9.92;73.44
78144;BME280;67394;52.522;13.622;2023-05-24T04:21:39;101215.38;;;9.86;73.90
78144;BME280;67394;52.522;13.622;2023-05-24T04:24:06;101209.41;;;9.84;73.49
78144;BME280;67394;52.522;13.622;2023-05-24T04:26:33;101220.53;;;9.89;74.14
78144;BME280;67394;52.522;13.622;2023-05-24T04:28:59;101222.31;;;9.93;73.44
78144;BME280;67394;52.522;13.622;2023-05-24T04:31:26;101223.09;;;9.89;73.79
78144;BME280;67394;52.522;13.622;2023-05-24T04:33:53;101213.75;;;9.91;73.70
78144;BME280;67394;52.522;13.622;2023-05-24T04:36:20;101221.41;;;9.89;73.60
78144;BME280;67394;52.522;13.622;2023-05-24T04:38:46;101223.16;;;9.94;72.82
78144;BME280;67394;52.522;13.622;2023-05-24T04:41:13;101224.06;;;9.96;74.06
78144;BME280;67394;52.522;13.622;2023-05-24T04:43:39;101234.25;;;9.93;73.20
78144;BME280;67394;52.522;13.622;2023-05-24T04:46:06;101229.16;;;9.94;73.40
78144;BME280;67394;52.522;13.622;2023-05-24T04:48:35;101236.81;;;9.93;71.51
78144;BME280;67394;52.522;13.622;2023-05-24T04:51:01;101244.47;;;9.91;72.44
78144;BME280;67394;52.522;13.622;2023-05-24T04:53:27;101254.78;;;9.97;73.07
78144;BME280;67394;52.522;13.622;2023-05-24T04:55:54;101245.47;;;10.04;71.85
78144;BME280;67394;52.522;13.622;2023-05-24T04:58:21;101247.94;;;9.95;71.66
78144;BME280;67394;52.522;13.622;2023-05-24T05:00:47;101255.59;;;9.96;71.61
78144;BME280;67394;52.522;13.622;2023-05-24T05:03:14;101258.25;;;10.01;71.10
78144;BME280;67394;52.522;13.622;2023-05-24T05:05:41;101258.28;;;10.04;71.62
78144;BME280;67394;52.522;13.622;2023-05-24T05:08:07;101251.56;;;10.15;71.06
78144;BME280;67394;52.522;13.622;2023-05-24T05:10:34;101258.47;;;10.19;71.61
78144;BME280;67394;52.522;13.622;2023-05-24T05:13:01;101271.28;;;10.20;70.24
78144;BME280;67394;52.522;13.622;2023-05-24T05:15:27;101265.38;;;10.24;70.50
78144;BME280;67394;52.522;13.622;2023-05-24T05:18:02;101272.19;;;10.22;70.04
78144;BME280;67394;52.522;13.622;2023-05-24T05:20:29;101277.25;;;10.19;70.33
78144;BME280;67394;52.522;13.622;2023-05-24T05:22:56;101267.06;;;10.22;70.25
78144;BME280;67394;52.522;13.622;2023-05-24T05:25:24;101273.94;;;10.30;69.11
78144;BME280;67394;52.522;13.622;2023-05-24T05:27:51;101269.72;;;10.32;69.89
78144;BME280;67394;52.522;13.622;2023-05-24T05:30:18;101274.03;;;10.36;69.08
78144;BME280;67394;52.522;13.622;2023-05-24T05:32:44;101282.59;;;10.39;69.46
78144;BME280;67394;52.522;13.622;2023-05-24T05:35:11;101274.94;;;10.41;69.92
78144;BME280;67394;52.522;13.622;2023-05-24T05:37:38;101275.91;;;10.52;70.42
78144;BME280;67394;52.522;13.622;2023-05-24T05:40:05;101286.16;;;10.52;68.96
78144;BME280;67394;52.522;13.622;2023-05-24T05:42:31;101284.38;;;10.45;69.66
78144;BME280;67394;52.522;13.622;2023-05-24T05:44:58;101290.31;;;10.42;69.84
78144;BME280;67394;52.522;13.622;2023-05-24T05:47:27;101292.13;;;10.51;70.55
78144;BME280;67394;52.522;13.622;2023-05-24T05:49:55;101295.63;;;10.57;68.79
78144;BME280;67394;52.522;13.622;2023-05-24T05:52:22;101298.19;;;10.60;69.54
78144;BME280;67394;52.522;13.622;2023-05-24T05:54:49;101292.22;;;10.61;67.88
78144;BME280;67394;52.522;13.622;2023-05-24T05:57:16;101292.03;;;10.43;69.11
78144;BME280;67394;52.522;13.622;2023-05-24T05:59:47;101295.50;;;10.47;69.15
78144;BME280;67394;52.522;13.622;2023-05-24T06:02:13;101291.22;;;10.49;69.15
78144;BME280;67394;52.522;13.622;2023-05-24T06:04:40;101293.06;;;10.59;69.46
78144;BME280;67394;52.522;13.622;2023-05-24T06:07:06;101296.44;;;10.55;69.33
78144;BME280;67394;52.522;13.622;2023-05-24T06:09:33;101297.28;;;10.54;69.62
78144;BME280;67394;52.522;13.622;2023-05-24T06:12:00;101299.78;;;10.49;69.16
78144;BME280;67394;52.522;13.622;2023-05-24T06:14:26;101310.06;;;10.51;68.85
78144;BME280;67394;52.522;13.622;2023-05-24T06:16:54;101309.28;;;10.58;69.20
78144;BME280;67394;52.522;13.622;2023-05-24T06:19:24;101318.81;;;10.70;68.92
78144;BME280;67394;52.522;13.622;2023-05-24T06:21:51;101316.25;;;10.71;69.97
78144;BME280;67394;52.522;13.622;2023-05-24T06:24:18;101323.06;;;10.71;68.69
78144;BME280;67394;52.522;13.622;2023-05-24T06:26:46;101316.44;;;10.91;67.99
78144;BME280;67394;52.522;13.622;2023-05-24T06:29:15;101319.13;;;11.05;68.60
78144;BME280;67394;52.522;13.622;2023-05-24T06:31:42;101325.13;;;11.07;67.34
78144;BME280;67394;52.522;13.622;2023-05-24T06:34:08;101317.34;;;10.97;67.42
78144;BME280;67394;52.522;13.622;2023-05-24T06:36:35;101324.25;;;11.05;66.85
78144;BME280;67394;52.522;13.622;2023-05-24T06:39:02;101330.31;;;11.14;67.09
78144;BME280;67394;52.522;13.622;2023-05-24T06:41:28;101335.47;;;11.16;67.68
78144;BME280;67394;52.522;13.622;2023-05-24T06:43:55;101332.88;;;11.16;66.32
78144;BME280;67394;52.522;13.622;2023-05-24T06:46:22;101338.22;;;11.40;67.70
78144;BME280;67394;52.522;13.622;2023-05-24T06:48:48;101341.59;;;11.36;65.75
78144;BME280;67394;52.522;13.622;2023-05-24T06:51:15;101345.97;;;11.48;66.17
78144;BME280;67394;52.522;13.622;2023-05-24T06:53:42;101345.16;;;11.56;65.57
78144;BME280;67394;52.522;13.622;2023-05-24T06:56:09;101346.81;;;11.47;65.74
78144;BME280;67394;52.522;13.622;2023-05-24T06:58:35;101351.00;;;11.35;65.74
78144;BME280;67394;52.522;13.622;2023-05-24T07:01:03;101346.88;;;11.57;65.76
78144;BME280;67394;52.522;13.622;2023-05-24T07:03:30;101360.63;;;11.65;65.35
78144;BME280;67394;52.522;13.622;2023-05-24T07:05:57;101354.66;;;11.65;65.35
78144;BME280;67394;52.522;13.622;2023-05-24T07:08:24;101353.09;;;11.85;65.11
78144;BME280;67394;52.522;13.622;2023-05-24T07:10:52;101353.94;;;11.83;65.21
78144;BME280;67394;52.522;13.622;2023-05-24T07:13:19;101358.03;;;11.59;65.08
78144;BME280;67394;52.522;13.622;2023-05-24T07:15:46;101357.38;;;11.85;65.19
78144;BME280;67394;52.522;13.622;2023-05-24T07:18:13;101359.97;;;11.91;66.04
78144;BME280;67394;52.522;13.622;2023-05-24T07:20:39;101363.53;;;12.16;65.80
78144;BME280;67394;52.522;13.622;2023-05-24T07:23:08;101358.47;;;12.37;63.77
78144;BME280;67394;52.522;13.622;2023-05-24T07:25:35;101360.91;;;12.11;63.07
78144;BME280;67394;52.522;13.622;2023-05-24T07:28:02;101368.72;;;12.32;64.00
78144;BME280;67394;52.522;13.622;2023-05-24T07:30:28;101372.25;;;12.57;62.70
78144;BME280;67394;52.522;13.622;2023-05-24T07:32:58;101373.06;;;12.39;63.12
78144;BME280;67394;52.522;13.622;2023-05-24T07:35:25;101374.81;;;12.56;63.15
78144;BME280;67394;52.522;13.622;2023-05-24T07:37:54;101374.03;;;12.87;63.66
78144;BME280;67394;52.522;13.622;2023-05-24T07:40:20;101375.78;;;13.00;63.31
78144;BME280;67394;52.522;13.622;2023-05-24T07:42:47;101376.63;;;13.07;62.59
78144;BME280;67394;52.522;13.622;2023-05-24T07:45:14;101379.22;;;13.02;61.73
78144;BME280;67394;52.522;13.622;2023-05-24T07:47:40;101377.53;;;13.29;63.19
78144;BME280;67394;52.522;13.622;2023-05-24T07:50:08;101385.22;;;13.12;62.68
78144;BME280;67394;52.522;13.622;2023-05-24T07:52:35;101384.38;;;13.16;62.91
78144;BME280;67394;52.522;13.622;2023-05-24T07:55:01;101387.78;;;13.03;61.57
78144;BME280;67394;52.522;13.622;2023-05-24T07:57:28;101389.38;;;12.55;62.06
78144;BME280;67394;52.522;13.622;2023-05-24T07:59:55;101391.09;;;12.53;63.42
78144;BME280;67394;52.522;13.622;2023-05-24T08:02:21;101388.59;;;12.85;62.39
78144;BME280;67394;52.522;13.622;2023-05-24T08:04:48;101399.72;;;12.69;61.63
78144;BME280;67394;52.522;13.622;2023-05-24T08:07:15;101398.91;;;12.80;62.01
78144;BME280;67394;52.522;13.622;2023-05-24T08:09:41;101397.22;;;12.99;62.73
78144;BME280;67394;52.522;13.622;2023-05-24T08:12:08;101395.56;;;13.23;61.31
78144;BME280;67394;52.522;13.622;2023-05-24T08:14:39;101393.78;;;13.08;60.74
78144;BME280;67394;52.522;13.622;2023-05-24T08:17:06;101399.84;;;13.30;61.39
78144;BME280;67394;52.522;13.622;2023-05-24T08:19:33;101405.84;;;13.18;59.92
78144;BME280;67394;52.522;13.622;2023-05-24T08:22:00;101411.78;;;12.93;60.69
78144;BME280;67394;52.522;13.622;2023-05-24T08:24:26;101409.22;;;12.90;60.62
78144;BME280;67394;52.522;13.622;2023-05-24T08:26:53;101412.63;;;12.87;61.74
78144;BME280;67394;52.522;13.622;2023-05-24T08:29:19;101413.53;;;13.03;61.63
78144;BME280;67394;52.522;13.622;2023-05-24T08:31:46;101403.28;;;13.36;61.37
78144;BME280;67394;52.522;13.622;2023-05-24T08:34:13;101399.84;;;13.48;61.27
78144;BME280;67394;52.522;13.622;2023-05-24T08:36:40;101412.72;;;13.75;59.74
78144;BME280;67394;52.522;13.622;2023-05-24T08:39:07;101414.44;;;13.72;58.97
78144;BME280;67394;52.522;13.622;2023-05-24T08:41:34;101414.44;;;13.58;57.92
78144;BME280;67394;52.522;13.622;2023-05-24T08:44:01;101418.72;;;13.61;58.93
78144;BME280;67394;52.522;13.622;2023-05-24T08:46:30;101421.31;;;13.44;56.58
78144;BME280;67394;52.522;13.622;2023-05-24T08:48:58;101428.19;;;13.33;60.25
78144;BME280;67394;52.522;13.622;2023-05-24T08:51:28;101423.03;;;13.37;58.57
78144;BME280;67394;52.522;13.622;2023-05-24T08:53:57;101428.19;;;13.45;58.95
78144;BME280;67394;52.522;13.622;2023-05-24T08:56:33;101434.91;;;12.82;60.35
78144;BME280;67394;52.522;13.622;2023-05-24T08:59:01;101426.44;;;13.18;60.20
78144;BME280;67394;52.522;13.622;2023-05-24T09:01:29;101438.41;;;13.01;59.61
78144;BME280;67394;52.522;13.622;2023-05-24T09:03:58;101438.41;;;13.05;61.28
78144;BME280;67394;52.522;13.622;2023-05-24T09:06:25;101439.34;;;13.30;59.20
78144;BME280;67394;52.522;13.622;2023-05-24T09:08:52;101436.75;;;13.26;58.66
78144;BME280;67394;52.522;13.622;2023-05-24T09:11:19;101438.47;;;13.57;60.06
78144;BME280;67394;52.522;13.622;2023-05-24T09:13:46;101439.34;;;13.71;58.62
78144;BME280;67394;52.522;13.622;2023-05-24T09:16:14;101439.34;;;13.47;58.21
78144;BME280;67394;52.522;13.622;2023-05-24T09:18:41;101445.31;;;13.14;59.24
78144;BME280;67394;52.522;13.622;2023-05-24T09:21:09;101437.63;;;13.44;58.20
78144;BME280;67394;52.522;13.622;2023-05-24T09:23:36;101436.78;;;13.65;59.47
78144;BME280;67394;52.522;13.622;2023-05-24T09:26:07;101438.44;;;14.00;58.28
78144;BME280;67394;52.522;13.622;2023-05-24T09:28:34;101441.78;;;14.35;59.21
78144;BME280;67394;52.522;13.622;2023-05-24T09:31:02;101440.06;;;14.46;55.78
78144;BME280;67394;52.522;13.622;2023-05-24T09:33:33;101444.34;;;14.53;55.56
78144;BME280;67394;52.522;13.622;2023-05-24T09:36:02;101444.38;;;14.38;55.20
78144;BME280;67394;52.522;13.622;2023-05-24T09:38:29;101447.81;;;14.51;54.81
78144;BME280;67394;52.522;13.622;2023-05-24T09:41:07;101445.28;;;14.11;55.91
78144;BME280;67394;52.522;13.622;2023-05-24T09:43:46;101442.59;;;14.55;56.01
78144;BME280;67394;52.522;13.622;2023-05-24T09:46:18;101446.00;;;14.67;55.56
78144;BME280;67394;52.522;13.622;2023-05-24T09:48:56;101446.94;;;14.50;54.61
78144;BME280;67394;52.522;13.622;2023-05-24T09:51:23;101446.94;;;14.46;54.93
78144;BME280;67394;52.522;13.622;2023-05-24T09:53:49;101447.72;;;14.68;56.36
78144;BME280;67394;52.522;13.622;2023-05-24T09:56:17;101448.66;;;14.47;55.46
78144;BME280;67394;52.522;13.622;2023-05-24T09:58:44;101448.66;;;14.48;54.74
78144;BME280;67394;52.522;13.622;2023-05-24T10:01:11;101456.38;;;14.59;54.49
78144;BME280;67394;52.522;13.622;2023-05-24T10:03:38;101453.75;;;14.67;55.35
78144;BME280;67394;52.522;13.622;2023-05-24T10:06:05;101458.16;;;14.29;54.24
78144;BME280;67394;52.522;13.622;2023-05-24T10:08:33;101459.84;;;14.34;54.97
78144;BME280;67394;52.522;13.622;2023-05-24T10:11:01;101458.97;;;14.45;54.67
78144;BME280;67394;52.522;13.622;2023-05-24T10:13:29;101461.59;;;14.22;54.86
78144;BME280;67394;52.522;13.622;2023-05-24T10:15:56;101466.72;;;14.48;55.97
78144;BME280;67394;52.522;13.622;2023-05-24T10:18:24;101471.97;;;14.07;55.99
78144;BME280;67394;52.522;13.622;2023-05-24T10:20:56;101464.97;;;14.56;56.23
78144;BME280;67394;52.522;13.622;2023-05-24T10:23:26;101464.88;;;14.79;56.33
78144;BME280;67394;52.522;13.622;2023-05-24T10:26:04;101462.13;;;15.07;54.90
78144;BME280;67394;52.522;13.622;2023-05-24T10:28:33;101462.97;;;15.13;55.05
78144;BME280;67394;52.522;13.622;2023-05-24T10:31:15;101467.34;;;14.99;53.25
78144;BME280;67394;52.522;13.622;2023-05-24T10:33:46;101468.09;;;15.22;54.07
78144;BME280;67394;52.522;13.622;2023-05-24T10:36:13;101470.66;;;15.22;54.15
78144;BME280;67394;52.522;13.622;2023-05-24T10:38:41;101479.50;;;14.82;54.63
78144;BME280;67394;52.522;13.622;2023-05-24T10:41:10;101482.22;;;14.28;54.57
78144;BME280;67394;52.522;13.622;2023-05-24T10:43:39;101478.75;;;14.51;54.03
78144;BME280;67394;52.522;13.622;2023-05-24T10:46:09;101478.69;;;14.64;54.26
78144;BME280;67394;52.522;13.622;2023-05-24T10:48:38;101469.13;;;14.83;52.96
78144;BME280;67394;52.522;13.622;2023-05-24T10:51:36;101475.75;;;15.31;53.84
78144;BME280;67394;52.522;13.622;2023-05-24T10:54:18;101473.88;;;15.58;52.90
78144;BME280;67394;52.522;13.622;2023-05-24T10:56:49;101466.78;;;16.64;50.46
78144;BME280;67394;52.522;13.622;2023-05-24T10:59:32;101467.81;;;16.51;49.82
78144;BME280;67394;52.522;13.622;2023-05-24T11:02:00;101471.84;;;15.96;49.37
78144;BME280;67394;52.522;13.622;2023-05-24T11:04:36;101468.47;;;15.88;50.48
78144;BME280;67394;52.522;13.622;2023-05-24T11:07:04;101477.88;;;15.94;51.70
78144;BME280;67394;52.522;13.622;2023-05-24T11:09:32;101482.38;;;15.72;50.37
78144;BME280;67394;52.522;13.622;2023-05-24T11:12:06;101475.47;;;15.77;51.05
78144;BME280;67394;52.522;13.622;2023-05-24T11:14:38;101464.16;;;15.89;49.04
78144;BME280;67394;52.522;13.622;2023-05-24T11:17:06;101468.66;;;17.17;48.25
78144;BME280;67394;52.522;13.622;2023-05-24T11:19:35;101470.03;;;17.42;46.46
78144;BME280;67394;52.522;13.622;2023-05-24T11:22:06;101465.03;;;17.30;47.92
78144;BME280;67394;52.522;13.622;2023-05-24T11:24:33;101467.00;;;16.44;47.61
78144;BME280;67394;52.522;13.622;2023-05-24T11:27:00;101467.56;;;16.73;49.96
78144;BME280;67394;52.522;13.622;2023-05-24T11:29:28;101478.06;;;16.63;50.08
78144;BME280;67394;52.522;13.622;2023-05-24T11:31:59;101473.38;;;16.89;47.75
78144;BME280;67394;52.522;13.622;2023-05-24T11:34:26;101471.91;;;16.71;49.25
78144;BME280;67394;52.522;13.622;2023-05-24T11:36:55;101472.78;;;16.70;47.76
78144;BME280;67394;52.522;13.622;2023-05-24T11:39:22;101474.97;;;17.01;47.51
78144;BME280;67394;52.522;13.622;2023-05-24T11:41:49;101471.75;;;16.82;48.07
78144;BME280;67394;52.522;13.622;2023-05-24T11:44:17;101475.69;;;17.09;46.13
78144;BME280;67394;52.522;13.622;2023-05-24T11:46:44;101480.75;;;17.16;47.21
78144;BME280;67394;52.522;13.622;2023-05-24T11:49:13;101481.03;;;16.98;49.24
78144;BME280;67394;52.522;13.622;2023-05-24T11:51:41;101473.78;;;17.22;47.38
78144;BME280;67394;52.522;13.622;2023-05-24T11:54:08;101481.84;;;17.02;48.87
78144;BME280;67394;52.522;13.622;2023-05-24T11:56:35;101475.97;;;16.91;48.77
78144;BME280;67394;52.522;13.622;2023-05-24T11:59:23;101490.41;;;16.32;48.36
78144;BME280;67394;52.522;13.622;2023-05-24T12:02:00;101489.97;;;15.92;49.60
78144;BME280;67394;52.522;13.622;2023-05-24T12:04:28;101491.56;;;16.08;49.84
78144;BME280;67394;52.522;13.622;2023-05-24T12:06:58;101482.88;;;16.12;50.13
78144;BME280;67394;52.522;13.622;2023-05-24T12:09:26;101481.19;;;16.08;50.42
78144;BME280;67394;52.522;13.622;2023-05-24T12:11:54;101486.19;;;16.28;50.11
78144;BME280;67394;52.522;13.622;2023-05-24T12:14:27;101481.88;;;16.27;51.14
78144;BME280;67394;52.522;13.622;2023-05-24T12:16:55;101485.63;;;15.94;50.62
78144;BME280;67394;52.522;13.622;2023-05-24T12:19:24;101490.38;;;16.36;51.40
78144;BME280;67394;52.522;13.622;2023-05-24T12:22:08;101486.78;;;16.51;50.06
78144;BME280;67394;52.522;13.622;2023-05-24T12:24:36;101484.03;;;17.29;50.25
78144;BME280;67394;52.522;13.622;2023-05-24T12:27:03;101486.88;;;17.71;48.15
78144;BME280;67394;52.522;13.622;2023-05-24T12:29:34;101475.38;;;17.87;46.62
78144;BME280;67394;52.522;13.622;2023-05-24T12:32:03;101478.28;;;17.69;47.96
78144;BME280;67394;52.522;13.622;2023-05-24T12:34:31;101474.34;;;17.96;45.39
78144;BME280;67394;52.522;13.622;2023-05-24T12:36:58;101471.41;;;18.14;43.96
78144;BME280;67394;52.522;13.622;2023-05-24T12:39:26;101477.19;;;18.29;45.22
78144;BME280;67394;52.522;13.622;2023-05-24T12:41:54;101479.84;;;18.71;46.04
78144;BME280;67394;52.522;13.622;2023-05-24T12:44:28;101477.22;;;19.50;47.55
78144;BME280;67394;52.522;13.622;2023-05-24T12:46:56;101469.59;;;19.79;45.73
78144;BME280;67394;52.522;13.622;2023-05-24T12:49:24;101467.00;;;19.79;41.82
78144;BME280;67394;52.522;13.622;2023-05-24T12:51:56;101476.16;;;19.60;42.17
78144;BME280;67394;52.522;13.622;2023-05-24T12:54:26;101479.09;;;18.66;44.53
78144;BME280;67394;52.522;13.622;2023-05-24T12:56:54;101480.97;;;18.99;42.75